sensor_id;sensor_type;location;lat;lon;timestamp;P1;durP1;ratioP1;P2;durP2;ratioP2
39176;SDS011;24904;52.208;21.192;2023-03-23T00:02:26;40.40;;;22.30;;
39176;SDS011;24904;52.208;21.192;2023-03-23T00:07:30;38.40;;;23.20;;
39176;SDS011;24904;52.208;21.192;2023-03-23T00:12:34;40.70;;;23.70;;
39176;SDS011;24904;52.208;21.192;2023-03-23T00:17:37;37.10;;;23.00;;
39176;SDS011;24904;52.208;21.192;2023-03-23T00:22:40;36.60;;;21.30;;
39176;SDS011;24904;52.208;21.192;2023-03-23T00:36:11;37.30;;;23.20;;
39176;SDS011;24904;52.208;21.192;2023-03-23T00:41:14;42.40;;;24.10;;
39176;SDS011;24904;52.208;21.192;2023-03-23T00:46:17;37.10;;;21.70;;
39176;SDS011;24904;52.208;21.192;2023-03-23T00:51:21;36.20;;;22.70;;
39176;SDS011;24904;52.208;21.192;2023-03-23T00:56:25;37.30;;;23.00;;
39176;SDS011;24904;52.208;21.192;2023-03-23T01:01:28;41.70;;;22.90;;
39176;SDS011;24904;52.208;21.192;2023-03-23T01:06:32;39.70;;;23.00;;
39176;SDS011;24904;52.208;21.192;2023-03-23T01:11:37;36.80;;;22.60;;
39176;SDS011;24904;52.208;21.192;2023-03-23T01:16:40;39.20;;;22.30;;
39176;SDS011;24904;52.208;21.192;2023-03-23T01:21:43;35.10;;;22.40;;
39176;SDS011;24904;52.208;21.192;2023-03-23T01:26:47;33.30;;;21.60;;
39176;SDS011;24904;52.208;21.192;2023-03-23T01:31:50;36.90;;;21.90;;
39176;SDS011;24904;52.208;21.192;2023-03-23T01:36:53;37.70;;;22.20;;
39176;SDS011;24904;52.208;21.192;2023-03-23T01:41:57;38.10;;;22.10;;
39176;SDS011;24904;52.208;21.192;2023-03-23T01:47:00;41.40;;;22.80;;
39176;SDS011;24904;52.208;21.192;2023-03-23T01:52:04;36.30;;;21.60;;
39176;SDS011;24904;52.208;21.192;2023-03-23T01:57:11;35.70;;;22.30;;
39176;SDS011;24904;52.208;21.192;2023-03-23T02:02:18;35.30;;;21.80;;
39176;SDS011;24904;52.208;21.192;2023-03-23T02:07:24;40.80;;;22.50;;
39176;SDS011;24904;52.208;21.192;2023-03-23T02:12:27;35.90;;;21.60;;
39176;SDS011;24904;52.208;21.192;2023-03-23T02:17:32;34.30;;;20.90;;
39176;SDS011;24904;52.208;21.192;2023-03-23T02:22:56;35.00;;;21.90;;
39176;SDS011;24904;52.208;21.192;2023-03-23T02:28:30;43.40;;;22.70;;
39176;SDS011;24904;52.208;21.192;2023-03-23T02:34:06;36.20;;;22.30;;
39176;SDS011;24904;52.208;21.192;2023-03-23T02:39:16;37.80;;;21.10;;
39176;SDS011;24904;52.208;21.192;2023-03-23T02:44:25;37.00;;;21.00;;
39176;SDS011;24904;52.208;21.192;2023-03-23T02:49:32;33.10;;;19.60;;
39176;SDS011;24904;52.208;21.192;2023-03-23T02:54:39;37.70;;;21.80;;
39176;SDS011;24904;52.208;21.192;2023-03-23T03:02:50;34.50;;;21.50;;
39176;SDS011;24904;52.208;21.192;2023-03-23T03:07:59;39.50;;;21.80;;
39176;SDS011;24904;52.208;21.192;2023-03-23T03:13:11;34.00;;;20.50;;
39176;SDS011;24904;52.208;21.192;2023-03-23T03:18:22;37.40;;;20.90;;
39176;SDS011;24904;52.208;21.192;2023-03-23T03:23:30;33.60;;;19.80;;
39176;SDS011;24904;52.208;21.192;2023-03-23T03:28:37;32.70;;;20.60;;
39176;SDS011;24904;52.208;21.192;2023-03-23T03:33:42;32.20;;;19.80;;
39176;SDS011;24904;52.208;21.192;2023-03-23T03:38:47;34.20;;;20.50;;
39176;SDS011;24904;52.208;21.192;2023-03-23T03:43:54;32.70;;;20.40;;
39176;SDS011;24904;52.208;21.192;2023-03-23T03:48:57;33.50;;;19.70;;
39176;SDS011;24904;52.208;21.192;2023-03-23T03:54:00;40.80;;;20.80;;
39176;SDS011;24904;52.208;21.192;2023-03-23T03:59:03;34.30;;;20.70;;
39176;SDS011;24904;52.208;21.192;2023-03-23T04:04:24;34.60;;;19.60;;
39176;SDS011;24904;52.208;21.192;2023-03-23T04:09:28;33.80;;;19.90;;
39176;SDS011;24904;52.208;21.192;2023-03-23T04:14:33;34.00;;;18.70;;
39176;SDS011;24904;52.208;21.192;2023-03-23T04:19:36;32.70;;;19.10;;
39176;SDS011;24904;52.208;21.192;2023-03-23T04:24:41;33.00;;;18.30;;
39176;SDS011;24904;52.208;21.192;2023-03-23T04:29:48;36.70;;;20.30;;
39176;SDS011;24904;52.208;21.192;2023-03-23T04:35:14;29.40;;;18.20;;
39176;SDS011;24904;52.208;21.192;2023-03-23T04:40:22;41.40;;;21.00;;
39176;SDS011;24904;52.208;21.192;2023-03-23T04:45:36;34.30;;;20.00;;
39176;SDS011;24904;52.208;21.192;2023-03-23T04:59:09;41.90;;;21.90;;
39176;SDS011;24904;52.208;21.192;2023-03-23T05:04:25;37.30;;;21.80;;
39176;SDS011;24904;52.208;21.192;2023-03-23T05:09:36;36.50;;;21.40;;
39176;SDS011;24904;52.208;21.192;2023-03-23T05:14:40;33.70;;;20.20;;
39176;SDS011;24904;52.208;21.192;2023-03-23T05:19:45;38.50;;;21.80;;
39176;SDS011;24904;52.208;21.192;2023-03-23T05:25:08;31.30;;;19.70;;
39176;SDS011;24904;52.208;21.192;2023-03-23T05:30:15;34.80;;;19.90;;
39176;SDS011;24904;52.208;21.192;2023-03-23T05:35:19;33.30;;;19.70;;
39176;SDS011;24904;52.208;21.192;2023-03-23T05:40:26;33.70;;;18.60;;
39176;SDS011;24904;52.208;21.192;2023-03-23T05:45:42;33.80;;;19.70;;
39176;SDS011;24904;52.208;21.192;2023-03-23T05:50:45;30.10;;;18.40;;
39176;SDS011;24904;52.208;21.192;2023-03-23T06:04:32;36.80;;;17.90;;
39176;SDS011;24904;52.208;21.192;2023-03-23T06:09:44;31.70;;;17.90;;
39176;SDS011;24904;52.208;21.192;2023-03-23T06:14:59;28.00;;;18.00;;
39176;SDS011;24904;52.208;21.192;2023-03-23T06:20:18;28.60;;;17.80;;
39176;SDS011;24904;52.208;21.192;2023-03-23T06:25:22;30.00;;;17.10;;
39176;SDS011;24904;52.208;21.192;2023-03-23T06:30:25;25.60;;;15.50;;
39176;SDS011;24904;52.208;21.192;2023-03-23T06:35:32;29.40;;;15.80;;
39176;SDS011;24904;52.208;21.192;2023-03-23T06:41:01;24.10;;;15.50;;
39176;SDS011;24904;52.208;21.192;2023-03-23T06:46:05;23.30;;;14.30;;
39176;SDS011;24904;52.208;21.192;2023-03-23T06:51:15;26.90;;;15.20;;
39176;SDS011;24904;52.208;21.192;2023-03-23T06:56:21;25.30;;;14.60;;
39176;SDS011;24904;52.208;21.192;2023-03-23T07:01:25;19.80;;;13.50;;
39176;SDS011;24904;52.208;21.192;2023-03-23T07:06:32;24.40;;;13.30;;
39176;SDS011;24904;52.208;21.192;2023-03-23T07:11:36;21.30;;;13.40;;
39176;SDS011;24904;52.208;21.192;2023-03-23T07:16:46;22.20;;;12.90;;
39176;SDS011;24904;52.208;21.192;2023-03-23T07:21:49;21.60;;;12.70;;
39176;SDS011;24904;52.208;21.192;2023-03-23T07:26:55;22.40;;;13.30;;
39176;SDS011;24904;52.208;21.192;2023-03-23T07:32:00;20.40;;;12.00;;
39176;SDS011;24904;52.208;21.192;2023-03-23T07:37:03;18.20;;;11.00;;
39176;SDS011;24904;52.208;21.192;2023-03-23T07:42:08;22.40;;;11.30;;
39176;SDS011;24904;52.208;21.192;2023-03-23T07:47:23;19.30;;;11.00;;
39176;SDS011;24904;52.208;21.192;2023-03-23T07:52:26;17.70;;;10.00;;
39176;SDS011;24904;52.208;21.192;2023-03-23T07:57:29;27.10;;;9.40;;
39176;SDS011;24904;52.208;21.192;2023-03-23T08:02:33;16.90;;;9.10;;
39176;SDS011;24904;52.208;21.192;2023-03-23T08:08:15;18.80;;;8.60;;
39176;SDS011;24904;52.208;21.192;2023-03-23T08:13:37;16.70;;;8.90;;
39176;SDS011;24904;52.208;21.192;2023-03-23T08:18:43;16.00;;;9.50;;
39176;SDS011;24904;52.208;21.192;2023-03-23T08:24:25;14.30;;;8.30;;
39176;SDS011;24904;52.208;21.192;2023-03-23T08:29:47;18.30;;;7.80;;
39176;SDS011;24904;52.208;21.192;2023-03-23T08:35:16;17.10;;;7.60;;
39176;SDS011;24904;52.208;21.192;2023-03-23T08:40:31;11.60;;;7.40;;
39176;SDS011;24904;52.208;21.192;2023-03-23T08:45:54;13.50;;;7.30;;
39176;SDS011;24904;52.208;21.192;2023-03-23T08:51:22;9.30;;;6.40;;
39176;SDS011;24904;52.208;21.192;2023-03-23T08:56:45;10.50;;;6.20;;
39176;SDS011;24904;52.208;21.192;2023-03-23T09:02:06;12.10;;;5.90;;
39176;SDS011;24904;52.208;21.192;2023-03-23T09:07:18;10.40;;;6.00;;
39176;SDS011;24904;52.208;21.192;2023-03-23T09:12:21;10.10;;;6.00;;
39176;SDS011;24904;52.208;21.192;2023-03-23T09:17:24;10.30;;;5.10;;
39176;SDS011;24904;52.208;21.192;2023-03-23T09:27:30;11.20;;;5.00;;
39176;SDS011;24904;52.208;21.192;2023-03-23T09:32:33;10.80;;;5.40;;
39176;SDS011;24904;52.208;21.192;2023-03-23T09:37:37;17.10;;;5.70;;
39176;SDS011;24904;52.208;21.192;2023-03-23T09:42:44;10.00;;;5.20;;
39176;SDS011;24904;52.208;21.192;2023-03-23T09:48:04;6.70;;;4.20;;
39176;SDS011;24904;52.208;21.192;2023-03-23T09:53:22;11.50;;;4.40;;
39176;SDS011;24904;52.208;21.192;2023-03-23T09:58:31;8.50;;;4.40;;
39176;SDS011;24904;52.208;21.192;2023-03-23T10:03:39;8.60;;;4.70;;
39176;SDS011;24904;52.208;21.192;2023-03-23T10:08:44;7.10;;;4.50;;
39176;SDS011;24904;52.208;21.192;2023-03-23T10:13:52;9.90;;;4.60;;
39176;SDS011;24904;52.208;21.192;2023-03-23T10:19:15;11.20;;;5.10;;
39176;SDS011;24904;52.208;21.192;2023-03-23T10:24:23;9.80;;;4.50;;
39176;SDS011;24904;52.208;21.192;2023-03-23T10:29:31;10.30;;;4.60;;
39176;SDS011;24904;52.208;21.192;2023-03-23T10:34:41;9.90;;;4.90;;
39176;SDS011;24904;52.208;21.192;2023-03-23T10:39:49;9.20;;;4.20;;
39176;SDS011;24904;52.208;21.192;2023-03-23T10:44:56;5.90;;;3.80;;
39176;SDS011;24904;52.208;21.192;2023-03-23T10:50:01;8.30;;;5.00;;
39176;SDS011;24904;52.208;21.192;2023-03-23T10:55:08;11.10;;;4.80;;
39176;SDS011;24904;52.208;21.192;2023-03-23T11:00:17;7.90;;;5.10;;
39176;SDS011;24904;52.208;21.192;2023-03-23T11:05:24;11.20;;;4.30;;
39176;SDS011;24904;52.208;21.192;2023-03-23T11:10:35;8.90;;;4.10;;
39176;SDS011;24904;52.208;21.192;2023-03-23T11:15:40;7.10;;;3.90;;
39176;SDS011;24904;52.208;21.192;2023-03-23T11:20:44;9.20;;;3.60;;
39176;SDS011;24904;52.208;21.192;2023-03-23T11:25:58;9.00;;;4.20;;
39176;SDS011;24904;52.208;21.192;2023-03-23T11:37:06;7.40;;;3.10;;
39176;SDS011;24904;52.208;21.192;2023-03-23T11:42:12;10.10;;;3.80;;
39176;SDS011;24904;52.208;21.192;2023-03-23T11:47:22;9.40;;;3.90;;
39176;SDS011;24904;52.208;21.192;2023-03-23T11:52:33;7.40;;;2.80;;
39176;SDS011;24904;52.208;21.192;2023-03-23T11:57:43;8.30;;;3.20;;
39176;SDS011;24904;52.208;21.192;2023-03-23T12:08:33;6.10;;;2.80;;
39176;SDS011;24904;52.208;21.192;2023-03-23T12:13:48;4.10;;;2.80;;
39176;SDS011;24904;52.208;21.192;2023-03-23T12:19:05;14.40;;;3.30;;
39176;SDS011;24904;52.208;21.192;2023-03-23T12:24:16;5.60;;;2.30;;
39176;SDS011;24904;52.208;21.192;2023-03-23T12:29:40;8.10;;;2.70;;
39176;SDS011;24904;52.208;21.192;2023-03-23T12:35:06;7.50;;;2.70;;
39176;SDS011;24904;52.208;21.192;2023-03-23T12:40:31;5.20;;;2.50;;
39176;SDS011;24904;52.208;21.192;2023-03-23T12:45:45;5.60;;;2.50;;
39176;SDS011;24904;52.208;21.192;2023-03-23T12:56:26;8.70;;;3.40;;
39176;SDS011;24904;52.208;21.192;2023-03-23T13:01:36;12.40;;;3.60;;
39176;SDS011;24904;52.208;21.192;2023-03-23T13:06:45;11.50;;;3.30;;
39176;SDS011;24904;52.208;21.192;2023-03-23T13:11:50;6.10;;;3.50;;
39176;SDS011;24904;52.208;21.192;2023-03-23T13:16:59;9.20;;;3.20;;
39176;SDS011;24904;52.208;21.192;2023-03-23T13:22:13;5.10;;;3.80;;
39176;SDS011;24904;52.208;21.192;2023-03-23T13:27:23;4.90;;;2.90;;
39176;SDS011;24904;52.208;21.192;2023-03-23T13:32:34;5.10;;;3.30;;
39176;SDS011;24904;52.208;21.192;2023-03-23T13:37:42;4.50;;;3.00;;
39176;SDS011;24904;52.208;21.192;2023-03-23T13:42:50;7.90;;;3.50;;
39176;SDS011;24904;52.208;21.192;2023-03-23T13:54:40;6.40;;;3.40;;
39176;SDS011;24904;52.208;21.192;2023-03-23T13:59:47;5.40;;;2.80;;
39176;SDS011;24904;52.208;21.192;2023-03-23T14:04:57;9.60;;;2.90;;
39176;SDS011;24904;52.208;21.192;2023-03-23T14:10:15;6.80;;;2.90;;
39176;SDS011;24904;52.208;21.192;2023-03-23T14:15:19;6.60;;;2.30;;
39176;SDS011;24904;52.208;21.192;2023-03-23T14:20:25;9.00;;;2.60;;
39176;SDS011;24904;52.208;21.192;2023-03-23T14:25:33;7.30;;;2.40;;
39176;SDS011;24904;52.208;21.192;2023-03-23T14:30:36;7.60;;;3.00;;
39176;SDS011;24904;52.208;21.192;2023-03-23T14:35:41;10.00;;;2.40;;
39176;SDS011;24904;52.208;21.192;2023-03-23T14:40:45;7.40;;;2.20;;
39176;SDS011;24904;52.208;21.192;2023-03-23T14:45:59;5.80;;;2.80;;
39176;SDS011;24904;52.208;21.192;2023-03-23T14:51:06;16.20;;;3.10;;
39176;SDS011;24904;52.208;21.192;2023-03-23T14:56:19;8.10;;;3.30;;
39176;SDS011;24904;52.208;21.192;2023-03-23T15:01:25;10.80;;;2.80;;
39176;SDS011;24904;52.208;21.192;2023-03-23T15:06:31;8.60;;;3.40;;
39176;SDS011;24904;52.208;21.192;2023-03-23T15:11:38;7.20;;;3.60;;
39176;SDS011;24904;52.208;21.192;2023-03-23T15:16:44;7.10;;;3.80;;
39176;SDS011;24904;52.208;21.192;2023-03-23T15:21:50;10.70;;;3.90;;
39176;SDS011;24904;52.208;21.192;2023-03-23T15:27:03;9.30;;;3.50;;
39176;SDS011;24904;52.208;21.192;2023-03-23T15:32:19;7.80;;;3.70;;
39176;SDS011;24904;52.208;21.192;2023-03-23T15:37:25;7.90;;;3.80;;
39176;SDS011;24904;52.208;21.192;2023-03-23T15:42:30;9.20;;;5.20;;
39176;SDS011;24904;52.208;21.192;2023-03-23T15:47:37;9.60;;;3.80;;
39176;SDS011;24904;52.208;21.192;2023-03-23T15:52:46;5.80;;;3.50;;
39176;SDS011;24904;52.208;21.192;2023-03-23T15:57:49;8.20;;;4.00;;
39176;SDS011;24904;52.208;21.192;2023-03-23T16:02:54;9.30;;;4.40;;
39176;SDS011;24904;52.208;21.192;2023-03-23T16:08:00;8.00;;;3.90;;
39176;SDS011;24904;52.208;21.192;2023-03-23T16:13:03;13.50;;;4.50;;
39176;SDS011;24904;52.208;21.192;2023-03-23T16:18:08;13.20;;;5.70;;
39176;SDS011;24904;52.208;21.192;2023-03-23T16:23:17;8.10;;;4.50;;
39176;SDS011;24904;52.208;21.192;2023-03-23T16:28:21;5.90;;;3.90;;
39176;SDS011;24904;52.208;21.192;2023-03-23T16:33:24;8.60;;;3.90;;
39176;SDS011;24904;52.208;21.192;2023-03-23T16:38:27;8.80;;;4.00;;
39176;SDS011;24904;52.208;21.192;2023-03-23T16:43:30;18.50;;;4.60;;
39176;SDS011;24904;52.208;21.192;2023-03-23T16:48:33;11.00;;;3.80;;
39176;SDS011;24904;52.208;21.192;2023-03-23T16:53:38;6.50;;;4.00;;
39176;SDS011;24904;52.208;21.192;2023-03-23T16:58:40;6.80;;;3.40;;
39176;SDS011;24904;52.208;21.192;2023-03-23T17:03:44;6.50;;;3.40;;
39176;SDS011;24904;52.208;21.192;2023-03-23T17:12:09;6.10;;;3.30;;
39176;SDS011;24904;52.208;21.192;2023-03-23T17:17:12;4.80;;;3.30;;
39176;SDS011;24904;52.208;21.192;2023-03-23T17:22:15;8.80;;;4.10;;
39176;SDS011;24904;52.208;21.192;2023-03-23T17:27:18;9.40;;;3.90;;
39176;SDS011;24904;52.208;21.192;2023-03-23T17:32:22;5.60;;;3.90;;
39176;SDS011;24904;52.208;21.192;2023-03-23T17:37:26;7.10;;;3.90;;
39176;SDS011;24904;52.208;21.192;2023-03-23T17:42:29;8.30;;;3.80;;
39176;SDS011;24904;52.208;21.192;2023-03-23T17:47:32;10.40;;;4.20;;
39176;SDS011;24904;52.208;21.192;2023-03-23T17:52:35;8.40;;;4.50;;
39176;SDS011;24904;52.208;21.192;2023-03-23T17:57:38;12.20;;;4.90;;
39176;SDS011;24904;52.208;21.192;2023-03-23T18:02:41;9.50;;;4.80;;
39176;SDS011;24904;52.208;21.192;2023-03-23T18:07:44;11.30;;;5.20;;
39176;SDS011;24904;52.208;21.192;2023-03-23T18:12:48;9.30;;;6.00;;
39176;SDS011;24904;52.208;21.192;2023-03-23T18:17:51;8.80;;;5.30;;
39176;SDS011;24904;52.208;21.192;2023-03-23T18:22:54;9.00;;;5.30;;
39176;SDS011;24904;52.208;21.192;2023-03-23T18:27:58;8.40;;;5.20;;
39176;SDS011;24904;52.208;21.192;2023-03-23T18:33:01;9.00;;;5.60;;
39176;SDS011;24904;52.208;21.192;2023-03-23T18:38:04;9.90;;;5.60;;
39176;SDS011;24904;52.208;21.192;2023-03-23T18:43:07;11.10;;;5.20;;
39176;SDS011;24904;52.208;21.192;2023-03-23T18:48:10;10.90;;;5.20;;
39176;SDS011;24904;52.208;21.192;2023-03-23T18:53:13;8.20;;;4.60;;
39176;SDS011;24904;52.208;21.192;2023-03-23T18:58:17;10.40;;;5.70;;
39176;SDS011;24904;52.208;21.192;2023-03-23T19:03:22;8.80;;;5.30;;
39176;SDS011;24904;52.208;21.192;2023-03-23T19:08:25;11.80;;;5.50;;
39176;SDS011;24904;52.208;21.192;2023-03-23T19:13:29;9.70;;;4.40;;
39176;SDS011;24904;52.208;21.192;2023-03-23T19:18:34;9.40;;;4.60;;
39176;SDS011;24904;52.208;21.192;2023-03-23T19:23:37;7.70;;;4.60;;
39176;SDS011;24904;52.208;21.192;2023-03-23T19:28:40;15.90;;;4.50;;
39176;SDS011;24904;52.208;21.192;2023-03-23T19:33:43;6.10;;;4.20;;
39176;SDS011;24904;52.208;21.192;2023-03-23T19:38:46;8.30;;;4.40;;
39176;SDS011;24904;52.208;21.192;2023-03-23T19:43:50;9.90;;;4.30;;
39176;SDS011;24904;52.208;21.192;2023-03-23T19:48:54;9.70;;;4.20;;
39176;SDS011;24904;52.208;21.192;2023-03-23T19:53:58;7.60;;;4.10;;
39176;SDS011;24904;52.208;21.192;2023-03-23T19:59:02;9.40;;;3.70;;
39176;SDS011;24904;52.208;21.192;2023-03-23T20:04:08;6.60;;;2.90;;
39176;SDS011;24904;52.208;21.192;2023-03-23T20:09:12;5.10;;;2.80;;
39176;SDS011;24904;52.208;21.192;2023-03-23T20:14:16;4.50;;;2.50;;
39176;SDS011;24904;52.208;21.192;2023-03-23T20:19:19;3.10;;;1.80;;
39176;SDS011;24904;52.208;21.192;2023-03-23T20:24:22;4.70;;;2.60;;
39176;SDS011;24904;52.208;21.192;2023-03-23T20:29:25;5.10;;;2.30;;
39176;SDS011;24904;52.208;21.192;2023-03-23T20:34:31;3.60;;;2.20;;
39176;SDS011;24904;52.208;21.192;2023-03-23T20:39:36;4.20;;;2.10;;
39176;SDS011;24904;52.208;21.192;2023-03-23T20:44:41;4.80;;;1.70;;
39176;SDS011;24904;52.208;21.192;2023-03-23T20:49:45;4.30;;;1.70;;
39176;SDS011;24904;52.208;21.192;2023-03-23T20:54:49;5.90;;;1.80;;
39176;SDS011;24904;52.208;21.192;2023-03-23T20:59:52;6.10;;;2.20;;
39176;SDS011;24904;52.208;21.192;2023-03-23T21:04:56;4.90;;;2.50;;
39176;SDS011;24904;52.208;21.192;2023-03-23T21:10:04;5.10;;;2.50;;
39176;SDS011;24904;52.208;21.192;2023-03-23T21:15:07;5.40;;;2.90;;
39176;SDS011;24904;52.208;21.192;2023-03-23T21:20:11;5.20;;;2.30;;
39176;SDS011;24904;52.208;21.192;2023-03-23T21:30:29;4.80;;;2.60;;
39176;SDS011;24904;52.208;21.192;2023-03-23T21:35:34;4.90;;;2.60;;
39176;SDS011;24904;52.208;21.192;2023-03-23T21:40:39;4.60;;;2.30;;
39176;SDS011;24904;52.208;21.192;2023-03-23T21:45:45;4.30;;;2.70;;
39176;SDS011;24904;52.208;21.192;2023-03-23T21:50:50;5.90;;;3.10;;
39176;SDS011;24904;52.208;21.192;2023-03-23T21:55:55;6.30;;;3.50;;
39176;SDS011;24904;52.208;21.192;2023-03-23T22:01:00;6.90;;;3.50;;
39176;SDS011;24904;52.208;21.192;2023-03-23T22:06:07;8.60;;;3.90;;
39176;SDS011;24904;52.208;21.192;2023-03-23T22:11:15;5.10;;;3.30;;
39176;SDS011;24904;52.208;21.192;2023-03-23T22:24:34;13.10;;;4.20;;
39176;SDS011;24904;52.208;21.192;2023-03-23T22:29:39;7.80;;;3.90;;
39176;SDS011;24904;52.208;21.192;2023-03-23T22:34:44;5.10;;;3.60;;
39176;SDS011;24904;52.208;21.192;2023-03-23T22:39:50;7.50;;;4.60;;
39176;SDS011;24904;52.208;21.192;2023-03-23T22:44:55;8.90;;;4.30;;
39176;SDS011;24904;52.208;21.192;2023-03-23T22:50:00;9.10;;;4.70;;
39176;SDS011;24904;52.208;21.192;2023-03-23T22:55:06;12.50;;;4.30;;
39176;SDS011;24904;52.208;21.192;2023-03-23T23:00:12;10.90;;;4.50;;
39176;SDS011;24904;52.208;21.192;2023-03-23T23:05:19;8.60;;;4.90;;
39176;SDS011;24904;52.208;21.192;2023-03-23T23:10:24;9.30;;;5.10;;
39176;SDS011;24904;52.208;21.192;2023-03-23T23:15:30;8.90;;;5.30;;
39176;SDS011;24904;52.208;21.192;2023-03-23T23:20:35;8.70;;;5.40;;
39176;SDS011;24904;52.208;21.192;2023-03-23T23:25:40;12.00;;;5.90;;
39176;SDS011;24904;52.208;21.192;2023-03-23T23:30:46;12.20;;;5.80;;
39176;SDS011;24904;52.208;21.192;2023-03-23T23:35:52;9.90;;;4.80;;
39176;SDS011;24904;52.208;21.192;2023-03-23T23:40:57;9.60;;;5.20;;
39176;SDS011;24904;52.208;21.192;2023-03-23T23:46:02;8.00;;;4.60;;
39176;SDS011;24904;52.208;21.192;2023-03-23T23:51:08;8.90;;;4.50;;
39176;SDS011;24904;52.208;21.192;2023-03-23T23:56:16;8.40;;;4.20;;
